createdAt,value
2023-04-06T00:00:12.013Z,8.98
2023-04-06T00:00:34.810Z,8.18
2023-04-06T00:01:00.041Z,8.07
2023-04-06T00:01:22.791Z,9.55
2023-04-06T00:01:48.100Z,9.38
2023-04-06T00:02:11.443Z,7.93
2023-04-06T00:02:36.696Z,7.82
2023-04-06T00:02:59.898Z,7.47
2023-04-06T00:03:25.301Z,9.02
2023-04-06T00:03:50.660Z,8.23
2023-04-06T00:04:14.988Z,7.95
2023-04-06T00:04:41.056Z,8.05
2023-04-06T00:05:04.036Z,8.35
2023-04-06T00:05:29.016Z,9.13
2023-04-06T00:05:54.332Z,8.55
2023-04-06T00:06:17.474Z,9.27
2023-04-06T00:06:42.473Z,8.27
2023-04-06T00:07:05.495Z,8.27
2023-04-06T00:07:29.356Z,10.00
2023-04-06T00:07:55.309Z,8.45
2023-04-06T00:08:18.170Z,7.75
2023-04-06T00:08:44.105Z,9.30
2023-04-06T00:09:07.125Z,8.00
2023-04-06T00:09:32.377Z,8.85
2023-04-06T00:09:55.160Z,8.60
2023-04-06T00:10:18.157Z,10.15
2023-04-06T00:10:43.051Z,9.05
2023-04-06T00:11:05.894Z,10.07
2023-04-06T00:11:31.037Z,8.52
2023-04-06T00:11:53.810Z,8.95
2023-04-06T00:12:16.651Z,8.52
2023-04-06T00:12:41.925Z,9.70
2023-04-06T00:13:06.820Z,9.90
2023-04-06T00:13:29.609Z,9.18
2023-04-06T00:13:52.538Z,8.27
2023-04-06T00:14:18.348Z,9.70
2023-04-06T00:14:41.871Z,9.00
2023-04-06T00:15:08.332Z,9.07
2023-04-06T00:15:33.621Z,7.25
2023-04-06T00:15:56.360Z,7.07
2023-04-06T00:16:24.788Z,8.25
2023-04-06T00:16:48.020Z,8.52
2023-04-06T00:17:11.262Z,8.55
2023-04-06T00:17:36.523Z,8.68
2023-04-06T00:17:59.421Z,9.27
2023-04-06T00:18:22.624Z,9.90
2023-04-06T00:18:48.330Z,8.40
2023-04-06T00:19:11.542Z,7.63
2023-04-06T00:19:38.016Z,9.95
2023-04-06T00:20:01.141Z,10.32
2023-04-06T00:20:26.355Z,9.02
2023-04-06T00:20:49.276Z,9.48
2023-04-06T00:21:15.332Z,10.02
2023-04-06T00:21:38.282Z,9.02
2023-04-06T00:22:03.377Z,8.48
2023-04-06T00:22:26.585Z,10.40
2023-04-06T00:22:49.316Z,12.30
2023-04-06T00:23:15.228Z,7.25
2023-04-06T00:23:40.586Z,9.77
2023-04-06T00:24:05.296Z,8.93
2023-04-06T00:24:28.081Z,8.82
2023-04-06T00:24:51.312Z,10.40
2023-04-06T00:25:16.339Z,8.10
2023-04-06T00:25:41.600Z,8.82
2023-04-06T00:26:04.413Z,8.20
2023-04-06T00:26:29.696Z,8.20
2023-04-06T00:26:54.880Z,8.93
2023-04-06T00:27:17.628Z,8.52
2023-04-06T00:27:40.604Z,7.55
2023-04-06T00:28:04.748Z,7.88
2023-04-06T00:28:30.838Z,8.05
2023-04-06T00:28:53.827Z,7.05
2023-04-06T00:29:16.647Z,7.57
2023-04-06T00:29:40.598Z,7.50
2023-04-06T00:30:05.825Z,9.43
2023-04-06T00:30:28.597Z,7.35
2023-04-06T00:30:53.925Z,8.10
2023-04-06T00:31:16.784Z,7.93
2023-04-06T00:31:41.918Z,7.90
2023-04-06T00:32:04.841Z,7.43
2023-04-06T00:32:29.987Z,7.82
2023-04-06T00:32:52.947Z,7.38
2023-04-06T00:33:15.698Z,7.85
2023-04-06T00:33:38.663Z,9.02
2023-04-06T00:34:01.482Z,8.93
2023-04-06T00:34:24.326Z,8.60
2023-04-06T00:34:48.737Z,9.07
2023-04-06T00:35:12.182Z,7.47
2023-04-06T00:35:35.182Z,8.52
2023-04-06T00:36:00.490Z,8.25
2023-04-06T00:36:23.316Z,8.30
2023-04-06T00:36:48.480Z,8.77
2023-04-06T00:37:12.358Z,8.77
2023-04-06T00:37:35.897Z,8.27
2023-04-06T00:37:58.839Z,9.10
2023-04-06T00:38:22.576Z,8.65
2023-04-06T00:38:45.531Z,8.93
2023-04-06T00:39:08.568Z,8.30
2023-04-06T00:39:33.615Z,7.68
2023-04-06T00:39:56.419Z,9.20
2023-04-06T00:40:19.379Z,9.40
2023-04-06T00:40:42.200Z,9.77
2023-04-06T00:41:05.732Z,10.20
2023-04-06T00:41:31.572Z,8.45
2023-04-06T00:41:54.452Z,7.50
2023-04-06T00:42:19.395Z,8.65
2023-04-06T00:42:45.598Z,9.38
2023-04-06T00:43:10.169Z,9.20
2023-04-06T00:43:33.180Z,8.20
2023-04-06T00:43:58.529Z,9.68
2023-04-06T00:44:21.968Z,10.00
2023-04-06T00:44:44.768Z,8.23
2023-04-06T00:45:09.479Z,8.15
2023-04-06T00:45:34.830Z,8.20
2023-04-06T00:46:00.183Z,7.97
2023-04-06T00:46:23.149Z,8.45
2023-04-06T00:46:46.149Z,8.20
2023-04-06T00:47:08.992Z,8.32
2023-04-06T00:47:34.060Z,7.07
2023-04-06T00:47:59.758Z,8.55
2023-04-06T00:48:22.552Z,8.98
2023-04-06T00:48:45.597Z,6.68
2023-04-06T00:49:11.569Z,8.10
2023-04-06T00:49:34.493Z,8.93
2023-04-06T00:49:58.890Z,7.90
2023-04-06T00:50:23.837Z,7.40
2023-04-06T00:50:46.581Z,6.65
2023-04-06T00:51:11.832Z,8.57
2023-04-06T00:51:34.754Z,8.23
2023-04-06T00:51:59.795Z,8.75
2023-04-06T00:52:25.724Z,9.07
2023-04-06T00:52:51.011Z,8.95
2023-04-06T00:53:13.806Z,8.48
2023-04-06T00:53:36.566Z,8.15
2023-04-06T00:54:01.501Z,7.80
2023-04-06T00:54:24.304Z,7.03
2023-04-06T00:54:47.192Z,6.57
2023-04-06T00:55:12.464Z,8.90
2023-04-06T00:55:37.161Z,8.95
2023-04-06T00:55:59.989Z,7.55
2023-04-06T00:56:24.641Z,9.07
2023-04-06T00:56:47.551Z,7.75
2023-04-06T00:57:10.512Z,8.85
2023-04-06T00:57:33.336Z,8.77
2023-04-06T00:57:56.312Z,7.38
2023-04-06T00:58:21.610Z,9.73
2023-04-06T00:58:46.546Z,6.72
2023-04-06T00:59:11.551Z,8.90
2023-04-06T00:59:36.906Z,7.70
2023-04-06T01:00:03.056Z,7.15
2023-04-06T01:00:25.897Z,6.85
2023-04-06T01:00:52.156Z,8.02
2023-04-06T01:01:14.992Z,8.63
2023-04-06T01:01:37.902Z,7.95
2023-04-06T01:02:03.104Z,7.72
2023-04-06T01:02:27.344Z,8.23
2023-04-06T01:02:50.512Z,7.38
2023-04-06T01:03:15.544Z,7.78
2023-04-06T01:03:38.414Z,7.68
2023-04-06T01:04:03.816Z,7.05
2023-04-06T01:04:26.684Z,8.02
2023-04-06T01:04:50.602Z,6.95
2023-04-06T01:05:17.492Z,8.18
2023-04-06T01:05:41.834Z,6.80
2023-04-06T01:06:04.977Z,8.73
2023-04-06T01:06:30.158Z,7.47
2023-04-06T01:06:55.522Z,8.25
2023-04-06T01:07:18.354Z,9.00
2023-04-06T01:07:41.227Z,7.38
2023-04-06T01:08:06.427Z,8.23
2023-04-06T01:08:29.572Z,7.75
2023-04-06T01:08:52.430Z,9.73
2023-04-06T01:09:17.378Z,8.15
2023-04-06T01:09:43.349Z,7.43
2023-04-06T01:10:07.097Z,7.78
2023-04-06T01:10:32.458Z,7.00
2023-04-06T01:10:55.328Z,8.13
2023-04-06T01:11:19.197Z,8.80
2023-04-06T01:11:44.644Z,9.48
2023-04-06T01:12:07.527Z,10.90
2023-04-06T01:12:31.005Z,7.90
2023-04-06T01:12:56.302Z,7.85
2023-04-06T01:13:19.194Z,7.63
2023-04-06T01:13:44.397Z,7.50
2023-04-06T01:14:07.290Z,10.02
2023-04-06T01:14:32.408Z,7.35
2023-04-06T01:14:55.209Z,6.93
2023-04-06T01:15:18.184Z,7.95
2023-04-06T01:15:43.553Z,8.35
2023-04-06T01:16:07.157Z,7.95
2023-04-06T01:16:29.948Z,8.15
2023-04-06T01:16:53.120Z,8.25
2023-04-06T01:17:18.925Z,7.18
2023-04-06T01:17:42.660Z,7.22
2023-04-06T01:18:08.037Z,7.53
2023-04-06T01:18:33.633Z,7.15
2023-04-06T01:18:56.689Z,8.27
2023-04-06T01:19:21.730Z,7.93
2023-04-06T01:19:46.896Z,8.77
2023-04-06T01:20:10.221Z,8.48
2023-04-06T01:20:34.506Z,8.13
2023-04-06T01:20:59.448Z,7.57
2023-04-06T01:21:25.427Z,7.90
2023-04-06T01:21:50.510Z,7.78
2023-04-06T01:22:17.395Z,8.85
2023-04-06T01:22:40.238Z,7.30
2023-04-06T01:23:05.485Z,8.13
2023-04-06T01:23:28.395Z,7.72
2023-04-06T01:23:53.377Z,7.03
2023-04-06T01:24:16.136Z,8.57
2023-04-06T01:24:38.940Z,8.82
2023-04-06T01:25:01.788Z,7.60
2023-04-06T01:25:24.699Z,7.25
2023-04-06T01:25:50.433Z,7.32
2023-04-06T01:26:13.459Z,8.00
2023-04-06T01:26:38.635Z,9.02
2023-04-06T01:27:02.477Z,7.50
2023-04-06T01:27:27.494Z,7.93
2023-04-06T01:27:50.589Z,7.13
2023-04-06T01:28:13.527Z,8.40
2023-04-06T01:28:38.421Z,9.80
2023-04-06T01:29:04.578Z,7.72
2023-04-06T01:29:27.602Z,7.13
2023-04-06T01:29:52.761Z,7.40
2023-04-06T01:30:18.769Z,8.10
2023-04-06T01:30:43.939Z,9.23
2023-04-06T01:31:07.038Z,8.02
2023-04-06T01:31:29.920Z,8.35
2023-04-06T01:31:52.867Z,9.95
2023-04-06T01:32:17.886Z,8.25
2023-04-06T01:32:40.799Z,10.80
2023-04-06T01:33:06.927Z,8.75
2023-04-06T01:33:29.809Z,7.70
2023-04-06T01:33:55.852Z,7.32
2023-04-06T01:34:18.697Z,9.55
2023-04-06T01:34:44.020Z,7.53
2023-04-06T01:35:09.954Z,8.77
2023-04-06T01:35:32.780Z,9.73
2023-04-06T01:35:58.158Z,8.98
2023-04-06T01:36:21.224Z,8.02
2023-04-06T01:36:47.227Z,7.85
2023-04-06T01:37:10.076Z,8.60
2023-04-06T01:37:37.457Z,7.47
2023-04-06T01:38:00.803Z,8.65
2023-04-06T01:38:26.093Z,8.20
2023-04-06T01:38:48.884Z,7.90
2023-04-06T01:39:11.740Z,9.10
2023-04-06T01:39:34.575Z,10.45
2023-04-06T01:39:59.612Z,8.48
2023-04-06T01:40:22.912Z,7.85
2023-04-06T01:40:48.111Z,8.30
2023-04-06T01:41:10.963Z,9.20
2023-04-06T01:41:33.768Z,9.10
2023-04-06T01:41:56.650Z,8.13
2023-04-06T01:42:19.491Z,8.77
2023-04-06T01:42:44.451Z,8.75
2023-04-06T01:43:07.781Z,9.52
2023-04-06T01:43:30.863Z,9.85
2023-04-06T01:43:55.877Z,9.98
2023-04-06T01:44:22.120Z,9.32
2023-04-06T01:44:47.241Z,8.65
2023-04-06T01:45:11.256Z,9.20
2023-04-06T01:45:34.137Z,10.07
2023-04-06T01:45:59.119Z,10.38
2023-04-06T01:46:24.348Z,9.20
2023-04-06T01:46:47.248Z,10.95
2023-04-06T01:47:10.107Z,10.82
2023-04-06T01:47:35.329Z,9.02
2023-04-06T01:48:00.682Z,8.95
2023-04-06T01:48:23.623Z,7.90
2023-04-06T01:48:46.581Z,10.35
2023-04-06T01:49:11.694Z,9.40
2023-04-06T01:49:34.985Z,8.13
2023-04-06T01:49:57.918Z,9.27
2023-04-06T01:50:21.016Z,9.98
2023-04-06T01:50:44.009Z,11.25
2023-04-06T01:51:07.011Z,11.90
2023-04-06T01:51:29.880Z,10.93
2023-04-06T01:51:53.466Z,9.45
2023-04-06T01:52:16.868Z,10.13
2023-04-06T01:52:41.815Z,11.25
2023-04-06T01:53:04.707Z,10.65
2023-04-06T01:53:27.791Z,10.85
2023-04-06T01:53:50.795Z,9.93
2023-04-06T01:54:13.722Z,10.23
2023-04-06T01:54:36.653Z,11.32
2023-04-06T01:54:59.542Z,10.13
2023-04-06T01:55:22.587Z,9.80
2023-04-06T01:55:45.573Z,8.50
2023-04-06T01:56:08.606Z,10.55
2023-04-06T01:56:31.556Z,10.35
2023-04-06T01:56:54.692Z,10.90
2023-04-06T01:57:17.637Z,11.15
2023-04-06T01:57:40.646Z,10.65
2023-04-06T01:58:03.564Z,9.30
2023-04-06T01:58:26.764Z,10.93
2023-04-06T01:58:49.666Z,10.18
2023-04-06T01:59:12.687Z,10.27
2023-04-06T01:59:35.750Z,8.77
2023-04-06T01:59:58.592Z,9.30
2023-04-06T02:00:21.578Z,9.35
2023-04-06T02:00:44.364Z,9.52
2023-04-06T02:01:07.358Z,9.00
2023-04-06T02:01:30.476Z,9.00
2023-04-06T02:01:53.257Z,11.25
2023-04-06T02:02:17.224Z,9.73
2023-04-06T02:02:40.161Z,11.13
2023-04-06T02:03:03.182Z,8.60
2023-04-06T02:03:26.282Z,10.45
2023-04-06T02:03:49.211Z,11.75
2023-04-06T02:04:12.052Z,10.45
2023-04-06T02:04:34.897Z,9.68
2023-04-06T02:04:57.792Z,9.43
2023-04-06T02:05:21.826Z,8.95
2023-04-06T02:05:44.696Z,9.95
2023-04-06T02:06:07.858Z,10.07
2023-04-06T02:06:31.866Z,10.02
2023-04-06T02:06:54.735Z,8.73
2023-04-06T02:07:17.699Z,7.82
2023-04-06T02:07:42.174Z,8.88
2023-04-06T02:08:06.041Z,9.30
2023-04-06T02:08:28.974Z,10.80
2023-04-06T02:08:52.082Z,8.75
2023-04-06T02:09:15.717Z,8.95
2023-04-06T02:09:38.620Z,10.27
2023-04-06T02:10:01.466Z,8.98
2023-04-06T02:10:25.146Z,7.50
2023-04-06T02:10:47.941Z,10.23
2023-04-06T02:11:11.229Z,10.00
2023-04-06T02:11:34.074Z,8.00
2023-04-06T02:11:56.965Z,7.43
2023-04-06T02:12:19.887Z,7.72
2023-04-06T02:12:42.730Z,8.20
2023-04-06T02:13:05.550Z,9.82
2023-04-06T02:13:28.559Z,9.57
2023-04-06T02:13:51.591Z,8.43
2023-04-06T02:14:14.432Z,8.07
2023-04-06T02:14:38.642Z,8.15
2023-04-06T02:15:01.388Z,8.02
2023-04-06T02:15:24.326Z,8.95
2023-04-06T02:15:47.238Z,8.13
2023-04-06T02:16:10.230Z,8.07
2023-04-06T02:16:33.244Z,7.28
2023-04-06T02:16:56.375Z,7.15
2023-04-06T02:17:19.516Z,8.45
2023-04-06T02:17:42.557Z,8.45
2023-04-06T02:18:05.939Z,10.35
2023-04-06T02:18:29.636Z,8.38
2023-04-06T02:18:52.740Z,8.15
2023-04-06T02:19:15.707Z,7.75
2023-04-06T02:19:38.537Z,8.48
2023-04-06T02:20:01.572Z,10.77
2023-04-06T02:20:24.510Z,9.52
2023-04-06T02:20:47.435Z,9.80
2023-04-06T02:21:10.330Z,8.82
2023-04-06T02:21:33.634Z,8.25
2023-04-06T02:21:57.027Z,9.95
2023-04-06T02:22:19.864Z,7.53
2023-04-06T02:22:44.185Z,8.35
2023-04-06T02:23:08.061Z,10.65
2023-04-06T02:23:31.401Z,7.80
2023-04-06T02:23:55.098Z,9.77
2023-04-06T02:24:18.091Z,7.93
2023-04-06T02:24:41.486Z,9.55
2023-04-06T02:25:04.782Z,8.65
2023-04-06T02:25:27.826Z,8.55
2023-04-06T02:25:51.590Z,11.80
2023-04-06T02:26:14.566Z,10.10
2023-04-06T02:26:37.462Z,9.48
2023-04-06T02:27:00.993Z,9.45
2023-04-06T02:27:24.341Z,8.55
2023-04-06T02:27:47.142Z,10.50
2023-04-06T02:28:10.039Z,9.55
2023-04-06T02:28:32.834Z,10.48
2023-04-06T02:28:55.851Z,8.88
2023-04-06T02:29:18.687Z,10.63
2023-04-06T02:29:41.624Z,10.82
2023-04-06T02:30:04.810Z,10.95
2023-04-06T02:30:27.850Z,9.18
2023-04-06T02:30:50.693Z,8.02
2023-04-06T02:31:16.087Z,8.60
2023-04-06T02:31:39.253Z,9.73
2023-04-06T02:32:02.249Z,9.95
2023-04-06T02:32:25.178Z,12.00
2023-04-06T02:32:48.006Z,9.80
2023-04-06T02:33:10.931Z,9.75
2023-04-06T02:33:33.881Z,10.25
2023-04-06T02:33:56.657Z,9.88
2023-04-06T02:34:19.605Z,9.68
2023-04-06T02:34:44.728Z,9.88
2023-04-06T02:35:08.220Z,10.85
2023-04-06T02:35:31.691Z,9.55
2023-04-06T02:35:54.437Z,11.18
2023-04-06T02:36:17.459Z,10.70
2023-04-06T02:36:40.396Z,10.68
2023-04-06T02:37:05.883Z,11.50
2023-04-06T02:37:28.812Z,8.70
2023-04-06T02:37:53.206Z,10.80
2023-04-06T02:38:18.903Z,8.90
2023-04-06T02:38:44.882Z,9.70
2023-04-06T02:39:07.839Z,11.02
2023-04-06T02:39:31.201Z,10.27
2023-04-06T02:39:54.026Z,10.90
2023-04-06T02:40:19.531Z,13.70
2023-04-06T02:40:42.432Z,11.00
2023-04-06T02:41:05.254Z,12.35
2023-04-06T02:41:28.062Z,11.57
2023-04-06T02:41:50.875Z,9.98
2023-04-06T02:42:13.854Z,10.13
2023-04-06T02:42:36.801Z,13.30
2023-04-06T02:42:59.543Z,9.73
2023-04-06T02:43:22.435Z,9.60
2023-04-06T02:43:45.454Z,10.93
2023-04-06T02:44:11.120Z,10.15
2023-04-06T02:44:33.994Z,9.23
2023-04-06T02:44:57.030Z,8.98
2023-04-06T02:45:19.873Z,11.65
2023-04-06T02:45:42.662Z,11.73
2023-04-06T02:46:05.687Z,11.02
2023-04-06T02:46:28.838Z,10.23
2023-04-06T02:46:52.033Z,9.35
2023-04-06T02:47:14.835Z,11.90
2023-04-06T02:47:37.725Z,11.70
2023-04-06T02:48:00.660Z,12.23
2023-04-06T02:48:23.795Z,11.30
2023-04-06T02:48:46.644Z,9.88
2023-04-06T02:49:09.739Z,11.43
2023-04-06T02:49:32.800Z,13.05
2023-04-06T02:49:55.702Z,11.13
2023-04-06T02:50:18.581Z,11.63
2023-04-06T02:50:41.437Z,10.73
2023-04-06T02:51:04.504Z,13.32
2023-04-06T02:51:27.294Z,13.43
2023-04-06T02:51:50.132Z,13.80
2023-04-06T02:52:12.959Z,13.13
2023-04-06T02:52:35.762Z,14.10
2023-04-06T02:52:59.955Z,12.82
2023-04-06T02:53:22.869Z,11.95
2023-04-06T02:53:45.687Z,11.15
2023-04-06T02:54:09.488Z,11.15
2023-04-06T02:54:32.541Z,11.00
2023-04-06T02:54:55.438Z,11.35
2023-04-06T02:55:19.544Z,12.70
2023-04-06T02:55:44.123Z,13.70
2023-04-06T02:56:07.983Z,12.75
2023-04-06T02:56:30.914Z,12.80
2023-04-06T02:56:53.836Z,11.25
2023-04-06T02:57:16.785Z,11.35
2023-04-06T02:57:39.682Z,10.85
2023-04-06T02:58:02.537Z,12.57
2023-04-06T02:58:25.486Z,9.77
2023-04-06T02:58:48.454Z,11.13
2023-04-06T02:59:12.140Z,11.40
2023-04-06T02:59:35.320Z,10.60
2023-04-06T02:59:58.273Z,9.65
2023-04-06T03:00:21.999Z,10.27
2023-04-06T03:00:44.824Z,8.93
2023-04-06T03:01:07.740Z,8.85
2023-04-06T03:01:30.822Z,8.27
2023-04-06T03:01:54.172Z,8.85
2023-04-06T03:02:17.301Z,13.48
2023-04-06T03:02:41.191Z,11.27
2023-04-06T03:03:04.502Z,9.73
2023-04-06T03:03:27.656Z,9.98
2023-04-06T03:03:51.701Z,10.38
2023-04-06T03:04:14.888Z,9.82
2023-04-06T03:04:37.835Z,7.53
2023-04-06T03:05:04.314Z,6.50
2023-04-06T03:05:27.404Z,8.50
2023-04-06T03:05:50.579Z,7.10
2023-04-06T03:06:13.360Z,7.85
2023-04-06T03:06:36.320Z,8.30
2023-04-06T03:07:01.350Z,7.35
2023-04-06T03:07:24.484Z,8.40
2023-04-06T03:07:47.361Z,8.23
2023-04-06T03:08:11.638Z,7.20
2023-04-06T03:08:34.455Z,8.63
2023-04-06T03:09:00.489Z,7.50
2023-04-06T03:09:23.738Z,7.55
2023-04-06T03:09:46.541Z,6.45
2023-04-06T03:10:11.081Z,9.25
2023-04-06T03:10:33.878Z,7.93
2023-04-06T03:10:56.817Z,8.65
2023-04-06T03:11:19.658Z,8.73
2023-04-06T03:11:42.527Z,8.20
2023-04-06T03:12:07.048Z,9.40
2023-04-06T03:12:31.591Z,9.82
2023-04-06T03:12:54.474Z,8.35
2023-04-06T03:13:17.367Z,9.18
2023-04-06T03:13:40.658Z,9.50
2023-04-06T03:14:03.450Z,7.35
2023-04-06T03:14:26.234Z,6.30
2023-04-06T03:14:49.093Z,7.07
2023-04-06T03:15:12.524Z,7.65
2023-04-06T03:15:35.629Z,9.07
2023-04-06T03:15:58.517Z,8.02
2023-04-06T03:16:21.566Z,6.90
2023-04-06T03:16:45.334Z,8.52
2023-04-06T03:17:08.129Z,6.60
2023-04-06T03:17:31.444Z,8.40
2023-04-06T03:17:54.454Z,8.70
2023-04-06T03:18:21.764Z,8.95
2023-04-06T03:18:46.283Z,8.93
2023-04-06T03:19:09.394Z,7.97
2023-04-06T03:19:32.599Z,7.80
2023-04-06T03:19:55.331Z,8.30
2023-04-06T03:20:18.296Z,9.13
2023-04-06T03:20:41.827Z,8.48
2023-04-06T03:21:04.789Z,9.23
2023-04-06T03:21:27.629Z,8.43
2023-04-06T03:21:50.910Z,11.25
2023-04-06T03:22:13.651Z,8.93
2023-04-06T03:22:36.416Z,9.68
2023-04-06T03:22:59.423Z,8.45
2023-04-06T03:23:24.056Z,8.88
2023-04-06T03:23:46.856Z,8.40
2023-04-06T03:24:09.753Z,7.40
2023-04-06T03:24:35.761Z,8.07
2023-04-06T03:24:58.651Z,8.55
2023-04-06T03:25:21.554Z,7.72
2023-04-06T03:25:44.412Z,8.82
2023-04-06T03:26:07.336Z,9.68
2023-04-06T03:26:32.532Z,8.63
2023-04-06T03:26:56.209Z,7.65
2023-04-06T03:27:19.201Z,7.07
2023-04-06T03:27:42.136Z,6.45
2023-04-06T03:28:05.175Z,9.70
2023-04-06T03:28:28.070Z,10.07
2023-04-06T03:28:50.980Z,9.90
2023-04-06T03:29:16.030Z,8.77
2023-04-06T03:29:39.089Z,7.75
2023-04-06T03:30:01.995Z,10.15
2023-04-06T03:30:27.811Z,10.85
2023-04-06T03:30:50.995Z,7.25
2023-04-06T03:31:13.853Z,7.13
2023-04-06T03:31:36.912Z,8.23
2023-04-06T03:31:59.825Z,8.25
2023-04-06T03:32:22.750Z,8.00
2023-04-06T03:32:45.992Z,7.65
2023-04-06T03:33:08.799Z,9.50
2023-04-06T03:33:34.419Z,10.50
2023-04-06T03:34:00.485Z,8.40
2023-04-06T03:34:23.293Z,10.00
2023-04-06T03:34:46.179Z,8.25
2023-04-06T03:35:10.088Z,7.90
2023-04-06T03:35:32.931Z,9.32
2023-04-06T03:35:56.408Z,10.48
2023-04-06T03:36:19.352Z,11.77
2023-04-06T03:36:42.194Z,8.05
2023-04-06T03:37:10.429Z,10.55
2023-04-06T03:37:33.731Z,9.77
2023-04-06T03:37:56.579Z,9.63
2023-04-06T03:38:19.838Z,8.38
2023-04-06T03:38:46.797Z,8.93
2023-04-06T03:39:09.852Z,9.45
2023-04-06T03:39:33.313Z,9.07
2023-04-06T03:39:56.227Z,9.52
2023-04-06T03:40:19.186Z,7.45
2023-04-06T03:40:44.434Z,9.05
2023-04-06T03:41:07.319Z,8.48
2023-04-06T03:41:30.207Z,10.48
2023-04-06T03:41:53.111Z,10.98
2023-04-06T03:42:16.515Z,7.55
2023-04-06T03:42:39.344Z,8.25
2023-04-06T03:43:02.163Z,8.43
2023-04-06T03:43:26.799Z,8.02
2023-04-06T03:43:49.615Z,8.73
2023-04-06T03:44:12.404Z,8.30
2023-04-06T03:44:35.704Z,9.43
2023-04-06T03:44:58.487Z,8.15
2023-04-06T03:45:21.427Z,8.15
2023-04-06T03:45:44.253Z,8.65
2023-04-06T03:46:07.231Z,8.07
2023-04-06T03:46:30.231Z,9.82
2023-04-06T03:46:54.238Z,8.73
2023-04-06T03:47:17.160Z,7.75
2023-04-06T03:47:40.079Z,8.20
2023-04-06T03:48:03.105Z,10.07
2023-04-06T03:48:26.372Z,9.25
2023-04-06T03:48:49.929Z,8.45
2023-04-06T03:49:12.882Z,7.68
2023-04-06T03:49:35.993Z,11.18
2023-04-06T03:49:59.139Z,9.38
2023-04-06T03:50:22.108Z,10.15
2023-04-06T03:50:45.334Z,6.47
2023-04-06T03:51:08.458Z,7.80
2023-04-06T03:51:31.923Z,7.50
2023-04-06T03:51:54.724Z,9.02
2023-04-06T03:52:17.761Z,10.07
2023-04-06T03:52:40.838Z,9.60
2023-04-06T03:53:04.535Z,8.30
2023-04-06T03:53:27.899Z,9.18
2023-04-06T03:53:53.277Z,8.15
2023-04-06T03:54:16.120Z,8.25
2023-04-06T03:54:39.165Z,8.85
2023-04-06T03:55:02.040Z,7.25
2023-04-06T03:55:24.973Z,7.55
2023-04-06T03:55:48.072Z,8.80
2023-04-06T03:56:10.902Z,9.88
2023-04-06T03:56:33.753Z,8.20
2023-04-06T03:56:56.581Z,7.93
2023-04-06T03:57:19.363Z,8.75
2023-04-06T03:57:42.888Z,9.70
2023-04-06T03:58:05.672Z,8.80
2023-04-06T03:58:28.426Z,8.80
2023-04-06T03:58:52.444Z,9.43
2023-04-06T03:59:16.290Z,8.55
2023-04-06T03:59:39.218Z,9.90
2023-04-06T04:00:02.251Z,8.57
2023-04-06T04:00:25.468Z,8.77
2023-04-06T04:00:48.335Z,9.02
2023-04-06T04:01:11.196Z,8.20
2023-04-06T04:01:34.012Z,9.57
2023-04-06T04:01:56.941Z,9.45
2023-04-06T04:02:19.741Z,8.82
2023-04-06T04:02:42.901Z,9.35
2023-04-06T04:03:06.299Z,8.60
2023-04-06T04:03:29.320Z,7.43
2023-04-06T04:03:52.928Z,7.32
2023-04-06T04:04:16.183Z,6.20
2023-04-06T04:04:39.071Z,9.98
2023-04-06T04:05:02.053Z,8.73
2023-04-06T04:05:26.447Z,9.95
2023-04-06T04:05:49.302Z,8.60
2023-04-06T04:06:12.151Z,9.40
2023-04-06T04:06:34.960Z,8.65
2023-04-06T04:06:57.782Z,8.57
2023-04-06T04:07:20.643Z,9.93
2023-04-06T04:07:43.488Z,9.35
2023-04-06T04:08:06.401Z,9.68
2023-04-06T04:08:29.271Z,9.65
2023-04-06T04:08:53.492Z,8.95
2023-04-06T04:09:16.371Z,8.57
2023-04-06T04:09:39.277Z,8.60
2023-04-06T04:10:02.193Z,8.25
2023-04-06T04:10:25.004Z,8.57
2023-04-06T04:10:47.841Z,8.80
2023-04-06T04:11:10.785Z,8.75
2023-04-06T04:11:33.615Z,9.63
2023-04-06T04:11:56.981Z,10.35
2023-04-06T04:12:19.812Z,8.77
2023-04-06T04:12:42.551Z,8.60
2023-04-06T04:13:05.471Z,8.18
2023-04-06T04:13:28.240Z,8.90
2023-04-06T04:13:51.042Z,10.45
2023-04-06T04:14:13.916Z,8.07
2023-04-06T04:14:36.686Z,8.18
2023-04-06T04:14:59.449Z,7.03
2023-04-06T04:15:22.240Z,7.10
2023-04-06T04:15:45.116Z,8.38
2023-04-06T04:16:08.196Z,6.55
2023-04-06T04:16:34.124Z,9.32
2023-04-06T04:16:57.100Z,9.23
2023-04-06T04:17:19.946Z,8.10
2023-04-06T04:17:48.083Z,8.77
2023-04-06T04:18:11.079Z,8.20
2023-04-06T04:18:33.965Z,7.80
2023-04-06T04:18:56.794Z,9.13
2023-04-06T04:19:19.615Z,8.77
2023-04-06T04:19:42.592Z,8.38
2023-04-06T04:20:06.769Z,9.40
2023-04-06T04:20:29.645Z,9.68
2023-04-06T04:20:52.495Z,8.70
2023-04-06T04:21:15.714Z,9.23
2023-04-06T04:21:44.918Z,8.70
2023-04-06T04:22:07.854Z,8.15
2023-04-06T04:22:32.801Z,7.53
2023-04-06T04:22:55.690Z,8.93
2023-04-06T04:23:18.594Z,7.72
2023-04-06T04:23:41.715Z,8.23
2023-04-06T04:24:07.124Z,9.25
2023-04-06T04:24:30.002Z,7.40
2023-04-06T04:24:52.740Z,11.32
2023-04-06T04:25:15.745Z,8.43
2023-04-06T04:25:38.727Z,7.93
2023-04-06T04:26:01.756Z,9.20
2023-04-06T04:26:24.647Z,9.40
2023-04-06T04:26:47.689Z,8.30
2023-04-06T04:27:10.936Z,8.00
2023-04-06T04:27:33.671Z,7.80
2023-04-06T04:27:56.641Z,9.02
2023-04-06T04:28:19.687Z,8.45
2023-04-06T04:28:42.488Z,8.32
2023-04-06T04:29:06.736Z,7.10
2023-04-06T04:29:30.040Z,8.30
2023-04-06T04:29:53.211Z,8.75
2023-04-06T04:30:16.512Z,8.70
2023-04-06T04:30:39.295Z,9.60
2023-04-06T04:31:02.147Z,12.48
2023-04-06T04:31:25.062Z,12.13
2023-04-06T04:31:47.976Z,11.93
2023-04-06T04:32:10.968Z,13.73
2023-04-06T04:32:33.905Z,14.25
2023-04-06T04:32:57.008Z,12.98
2023-04-06T04:33:19.862Z,9.18
2023-04-06T04:33:42.851Z,9.35
2023-04-06T04:34:07.957Z,8.23
2023-04-06T04:34:30.848Z,9.95
2023-04-06T04:34:53.979Z,10.43
2023-04-06T04:35:16.999Z,12.38
2023-04-06T04:35:39.874Z,11.55
2023-04-06T04:36:02.809Z,13.75
2023-04-06T04:36:27.071Z,12.05
2023-04-06T04:36:50.120Z,13.60
2023-04-06T04:37:13.097Z,12.25
2023-04-06T04:37:36.512Z,12.50
2023-04-06T04:37:59.259Z,13.20
2023-04-06T04:38:22.580Z,12.70
2023-04-06T04:38:45.419Z,12.18
2023-04-06T04:39:09.892Z,10.70
2023-04-06T04:39:33.139Z,13.13
2023-04-06T04:39:56.061Z,10.00
2023-04-06T04:40:18.986Z,9.55
2023-04-06T04:40:41.848Z,11.32
2023-04-06T04:41:04.782Z,10.48
2023-04-06T04:41:27.581Z,9.88
2023-04-06T04:41:50.465Z,9.30
2023-04-06T04:42:13.306Z,9.02
2023-04-06T04:42:36.107Z,13.00
2023-04-06T04:42:58.992Z,13.38
2023-04-06T04:43:21.967Z,10.23
2023-04-06T04:43:44.808Z,10.30
2023-04-06T04:44:07.562Z,9.57
2023-04-06T04:44:30.483Z,10.43
2023-04-06T04:44:53.281Z,9.45
2023-04-06T04:45:16.278Z,9.77
2023-04-06T04:45:39.157Z,11.45
2023-04-06T04:46:02.124Z,9.40
2023-04-06T04:46:25.102Z,9.43
2023-04-06T04:46:48.420Z,14.55
2023-04-06T04:47:11.339Z,12.32
2023-04-06T04:47:34.238Z,12.27
2023-04-06T04:47:57.217Z,12.07
2023-04-06T04:48:20.058Z,9.25
2023-04-06T04:48:43.001Z,12.23
2023-04-06T04:49:06.293Z,10.73
2023-04-06T04:49:29.594Z,9.07
2023-04-06T04:49:52.409Z,9.40
2023-04-06T04:50:16.493Z,10.30
2023-04-06T04:50:39.331Z,11.13
2023-04-06T04:51:02.217Z,10.93
2023-04-06T04:51:25.954Z,11.10
2023-04-06T04:51:48.754Z,13.27
2023-04-06T04:52:11.613Z,13.57
2023-04-06T04:52:34.409Z,13.23
2023-04-06T04:52:57.357Z,10.35
2023-04-06T04:53:20.156Z,11.35
2023-04-06T04:53:43.022Z,11.23
2023-04-06T04:54:06.189Z,11.85
2023-04-06T04:54:30.561Z,11.82
2023-04-06T04:54:53.340Z,13.63
2023-04-06T04:55:19.537Z,14.60
2023-04-06T04:55:42.304Z,15.02
2023-04-06T04:56:05.617Z,12.55
2023-04-06T04:56:29.944Z,13.18
2023-04-06T04:56:53.386Z,16.13
2023-04-06T04:57:16.371Z,17.60
2023-04-06T04:57:39.133Z,15.65
2023-04-06T04:58:02.094Z,18.10
2023-04-06T04:58:25.107Z,13.88
2023-04-06T04:58:47.888Z,13.23
2023-04-06T04:59:10.932Z,13.75
2023-04-06T04:59:35.969Z,14.93
2023-04-06T04:59:59.141Z,13.07
2023-04-06T05:00:22.284Z,11.57
2023-04-06T05:00:45.165Z,12.82
2023-04-06T05:01:07.983Z,14.02
2023-04-06T05:01:40.848Z,17.88
2023-04-06T05:02:06.741Z,20.15
2023-04-06T05:02:32.486Z,20.70
2023-04-06T05:02:55.967Z,18.30
2023-04-06T05:03:21.654Z,20.60
2023-04-06T05:03:44.714Z,17.20
2023-04-06T05:04:07.622Z,19.00
2023-04-06T05:04:30.523Z,20.70
2023-04-06T05:04:53.301Z,18.23
2023-04-06T05:05:16.189Z,16.98
2023-04-06T05:05:39.017Z,21.48
2023-04-06T05:06:01.744Z,25.25
2023-04-06T05:06:24.658Z,22.70
2023-04-06T05:06:47.525Z,17.25
2023-04-06T05:07:10.646Z,20.60
2023-04-06T05:07:33.502Z,19.45
2023-04-06T05:07:56.234Z,17.92
2023-04-06T05:08:19.051Z,17.55
2023-04-06T05:08:42.419Z,22.58
2023-04-06T05:09:05.240Z,20.75
2023-04-06T05:09:29.487Z,21.80
2023-04-06T05:09:52.355Z,17.10
2023-04-06T05:10:15.537Z,19.85
2023-04-06T05:10:38.268Z,23.15
2023-04-06T05:11:01.057Z,20.98